Time;durP1;ratioP1;P1;durP2;ratioP2;P2;SDS_P1;SDS_P2;PMS_P1;PMS_P2;Temp;Humidity;BMP_temperature;BMP_pressure;BME280_temperature;BME280_humidity;BME280_pressure;Samples;Min_cycle;Max_cycle;Signal;HPM_P1;HPM_P2
2023/06/25 00:01:22;;;;;;;3.00;2.90;;;24.20;60.00;;;;;;5003995;28;20057;-82
2023/06/25 00:03:47;;;;;;;3.17;3.08;;;24.10;60.00;;;;;;5004016;28;20512;-83
2023/06/25 00:06:13;;;;;;;3.20;3.00;;;24.10;60.00;;;;;;5002312;28;20116;-82
2023/06/25 00:08:38;;;;;;;3.03;2.67;;;24.10;60.00;;;;;;5000280;28;20081;-82
2023/06/25 00:11:04;;;;;;;2.83;2.72;;;24.10;60.10;;;;;;5003076;28;20037;-83
2023/06/25 00:13:29;;;;;;;2.60;2.50;;;24.10;60.10;;;;;;5001559;28;20096;-83
2023/06/25 00:15:55;;;;;;;3.35;3.15;;;24.10;60.10;;;;;;5002489;28;20126;-83
2023/06/25 00:18:20;;;;;;;3.40;3.15;;;24.10;60.20;;;;;;5001579;28;20065;-82
2023/06/25 00:20:48;;;;;;;3.45;3.15;;;24.10;60.30;;;;;;5015055;28;20581;-82
2023/06/25 00:23:14;;;;;;;3.25;3.10;;;24.10;60.10;;;;;;5016112;28;20034;-83
2023/06/25 00:25:39;;;;;;;3.20;2.97;;;24.10;60.50;;;;;;5000448;28;20523;-83
2023/06/25 00:28:08;;;;;;;3.42;3.22;;;24.10;60.50;;;;;;5017933;28;20085;-83
2023/06/25 00:30:34;;;;;;;3.00;2.85;;;24.00;60.40;;;;;;5001856;28;20603;-82
2023/06/25 00:32:59;;;;;;;3.20;3.10;;;24.10;60.50;;;;;;5003818;28;20041;-83
2023/06/25 00:35:27;;;;;;;3.22;3.03;;;24.00;60.50;;;;;;4997285;28;20045;-82
2023/06/25 00:37:56;;;;;;;3.25;3.15;;;24.00;60.80;;;;;;4999197;28;20050;-82
2023/06/25 00:40:22;;;;;;;3.25;3.05;;;24.00;60.70;;;;;;5000191;28;20037;-82
2023/06/25 00:42:49;;;;;;;3.05;2.85;;;24.00;60.90;;;;;;5002154;28;20403;-82
2023/06/25 00:45:14;;;;;;;2.90;2.80;;;24.00;60.80;;;;;;5001384;28;20525;-83
2023/06/25 00:47:45;;;;;;;3.45;3.25;;;24.00;60.90;;;;;;5000759;28;20084;-82
2023/06/25 00:50:13;;;;;;;3.40;3.20;;;24.00;60.90;;;;;;5000456;28;20120;-83
2023/06/25 00:52:39;;;;;;;2.92;2.83;;;23.90;61.00;;;;;;5000893;28;20045;-82
2023/06/25 00:55:08;;;;;;;3.35;3.15;;;23.90;61.00;;;;;;5000142;28;20031;-82
2023/06/25 00:57:34;;;;;;;2.83;2.72;;;23.90;61.10;;;;;;5001191;28;20049;-82
2023/06/25 01:00:00;;;;;;;3.33;3.13;;;24.00;61.20;;;;;;4983507;28;20031;-82
2023/06/25 01:02:34;;;;;;;3.30;3.00;;;23.90;61.30;;;;;;4998203;28;20045;-82
2023/06/25 01:05:39;;;;;;;2.78;2.67;;;23.90;61.20;;;;;;5000060;28;20061;-82
2023/06/25 01:08:08;;;;;;;2.95;2.85;;;23.90;61.30;;;;;;4999593;28;20045;-82
2023/06/25 01:10:34;;;;;;;3.67;3.47;;;23.90;61.30;;;;;;5016536;28;20037;-82
2023/06/25 01:12:59;;;;;;;3.00;2.80;;;23.90;61.40;;;;;;5001349;28;20500;-82
2023/06/25 01:15:26;;;;;;;3.15;2.95;;;23.90;61.40;;;;;;5004989;28;20038;-82
2023/06/25 01:17:51;;;;;;;3.50;3.30;;;23.80;61.60;;;;;;5003789;28;20118;-82
2023/06/25 01:20:17;;;;;;;2.85;2.75;;;23.90;61.60;;;;;;5000525;28;20488;-83
2023/06/25 01:22:42;;;;;;;3.10;3.00;;;23.90;61.50;;;;;;5001284;28;20061;-82
2023/06/25 01:25:08;;;;;;;2.88;2.67;;;23.90;61.50;;;;;;4999157;28;20030;-82
2023/06/25 01:27:34;;;;;;;3.58;3.38;;;23.90;61.50;;;;;;5003775;28;20045;-82
2023/06/25 01:30:03;;;;;;;3.15;3.05;;;23.90;61.60;;;;;;4999270;28;20092;-82
2023/06/25 01:32:29;;;;;;;3.50;3.30;;;23.90;61.70;;;;;;5000843;28;20058;-82
2023/06/25 01:34:55;;;;;;;3.30;3.17;;;23.90;61.90;;;;;;4998940;28;20054;-82
2023/06/25 01:37:20;;;;;;;3.20;3.00;;;23.90;61.90;;;;;;5001558;28;20045;-83
2023/06/25 01:39:51;;;;;;;3.50;3.30;;;23.80;62.10;;;;;;5001607;28;20062;-83
2023/06/25 01:42:17;;;;;;;3.20;3.10;;;23.80;62.00;;;;;;5003437;28;20129;-83
2023/06/25 01:44:42;;;;;;;3.47;3.25;;;23.80;62.20;;;;;;5000088;28;20499;-82
2023/06/25 01:47:08;;;;;;;3.17;3.08;;;23.80;62.20;;;;;;4998286;28;20614;-82
2023/06/25 01:49:33;;;;;;;3.55;3.45;;;23.80;62.10;;;;;;5000826;28;20054;-85
2023/06/25 01:52:00;;;;;;;3.70;3.50;;;23.70;62.20;;;;;;5004406;28;20050;-84
2023/06/25 01:54:26;;;;;;;3.55;3.35;;;23.80;62.30;;;;;;5006202;28;20408;-83
2023/06/25 01:56:51;;;;;;;3.55;3.38;;;23.80;62.50;;;;;;5001082;28;20580;-81
2023/06/25 01:59:17;;;;;;;3.30;3.10;;;23.80;62.40;;;;;;5005550;28;20452;-82
2023/06/25 02:01:42;;;;;;;2.80;2.70;;;23.80;62.50;;;;;;5004689;28;20088;-82
2023/06/25 02:04:08;;;;;;;2.70;2.60;;;23.70;62.40;;;;;;5002352;28;20042;-82
2023/06/25 02:06:33;;;;;;;3.15;2.95;;;23.70;62.70;;;;;;5003573;28;20104;-81
2023/06/25 02:08:59;;;;;;;3.20;3.00;;;23.70;62.80;;;;;;5001049;28;20046;-81
2023/06/25 02:11:25;;;;;;;3.05;2.88;;;23.70;63.00;;;;;;5019688;28;20500;-82
2023/06/25 02:13:50;;;;;;;3.08;2.88;;;23.70;63.00;;;;;;5002613;28;20418;-81
2023/06/25 02:16:16;;;;;;;3.10;2.90;;;23.60;63.20;;;;;;5002190;28;20038;-82
2023/06/25 02:18:41;;;;;;;3.05;2.95;;;23.70;63.20;;;;;;5004051;28;20609;-81
2023/06/25 02:21:07;;;;;;;3.38;3.17;;;23.60;63.20;;;;;;5009488;28;20072;-81
2023/06/25 02:23:32;;;;;;;3.10;3.00;;;23.70;63.20;;;;;;4987121;28;20046;-81
2023/06/25 02:25:58;;;;;;;2.88;2.78;;;23.60;63.10;;;;;;5001647;28;20088;-81
2023/06/25 02:28:23;;;;;;;3.20;3.10;;;23.60;63.30;;;;;;5004242;28;20054;-82
2023/06/25 02:30:49;;;;;;;2.80;2.70;;;23.60;63.20;;;;;;5003844;28;20054;-81
2023/06/25 02:33:15;;;;;;;3.17;2.97;;;23.60;63.20;;;;;;5001958;28;20128;-81
2023/06/25 02:35:41;;;;;;;2.72;2.63;;;23.60;63.30;;;;;;4987087;28;20038;-82
2023/06/25 02:38:06;;;;;;;3.20;3.00;;;23.60;63.50;;;;;;4998113;28;20053;-82
2023/06/25 02:40:32;;;;;;;3.20;3.00;;;23.60;64.20;;;;;;5015750;28;20100;-81
2023/06/25 02:42:57;;;;;;;3.00;2.90;;;23.60;63.40;;;;;;4999298;28;20342;-82
2023/06/25 02:45:23;;;;;;;3.50;3.30;;;23.60;63.40;;;;;;5013500;28;20041;-81
2023/06/25 02:47:49;;;;;;;3.22;3.03;;;23.60;63.40;;;;;;5001378;28;20046;-81
2023/06/25 02:50:15;;;;;;;3.22;3.03;;;23.60;63.30;;;;;;5001186;28;20039;-81
2023/06/25 02:52:40;;;;;;;3.10;2.90;;;23.50;63.40;;;;;;5003072;28;20098;-82
2023/06/25 02:55:06;;;;;;;3.22;3.03;;;23.50;63.40;;;;;;5016106;28;20049;-82
2023/06/25 02:57:32;;;;;;;3.20;3.00;;;23.50;63.40;;;;;;5005534;28;20136;-81
2023/06/25 02:59:58;;;;;;;3.28;3.13;;;23.50;63.50;;;;;;5002290;28;20695;-82
2023/06/25 03:02:23;;;;;;;3.35;3.20;;;23.50;63.40;;;;;;5002487;28;20507;-82
2023/06/25 03:04:49;;;;;;;2.85;2.75;;;23.50;63.50;;;;;;5003448;28;20052;-82
2023/06/25 03:07:14;;;;;;;3.00;2.90;;;23.50;63.50;;;;;;5003352;28;20046;-82
2023/06/25 03:09:41;;;;;;;3.28;3.08;;;23.50;63.60;;;;;;5003026;28;20453;-82
2023/06/25 03:12:07;;;;;;;3.03;2.92;;;23.50;63.50;;;;;;5005438;28;20582;-82
2023/06/25 03:14:33;;;;;;;3.17;3.08;;;23.50;63.40;;;;;;5001128;28;20485;-81
2023/06/25 03:16:58;;;;;;;2.90;2.80;;;23.50;63.50;;;;;;5004754;28;20045;-81
2023/06/25 03:19:24;;;;;;;3.00;2.90;;;23.50;63.50;;;;;;5003621;28;20458;-82
2023/06/25 03:21:49;;;;;;;3.53;3.33;;;23.40;63.50;;;;;;5000938;28;20064;-81
2023/06/25 03:24:15;;;;;;;3.40;3.20;;;23.40;63.40;;;;;;5001293;28;20704;-82
2023/06/25 03:26:40;;;;;;;3.22;3.03;;;23.40;63.50;;;;;;5016671;28;20054;-81
2023/06/25 03:29:06;;;;;;;3.08;2.97;;;23.40;63.50;;;;;;5002357;28;20135;-81
2023/06/25 03:31:32;;;;;;;3.25;3.05;;;23.40;63.40;;;;;;5001022;28;20134;-81
2023/06/25 03:33:57;;;;;;;3.10;2.90;;;23.40;63.40;;;;;;5000222;28;20542;-82
2023/06/25 03:36:23;;;;;;;3.50;3.30;;;23.40;63.50;;;;;;5021499;28;20399;-81
2023/06/25 03:38:48;;;;;;;3.17;2.97;;;23.40;63.50;;;;;;5000228;28;20038;-81
2023/06/25 03:41:14;;;;;;;3.03;2.92;;;23.40;63.50;;;;;;5002197;28;20052;-81
2023/06/25 03:43:39;;;;;;;3.22;3.05;;;23.30;63.60;;;;;;4998966;28;20570;-81
2023/06/25 03:46:05;;;;;;;3.35;3.15;;;23.40;63.70;;;;;;5001808;28;20037;-82
2023/06/25 03:48:30;;;;;;;3.42;3.22;;;23.30;64.40;;;;;;5016017;28;20145;-81
2023/06/25 03:50:56;;;;;;;3.70;3.50;;;23.40;63.50;;;;;;5000919;28;20565;-82
2023/06/25 03:53:22;;;;;;;3.63;3.42;;;23.40;63.50;;;;;;5000394;28;20046;-82
2023/06/25 03:55:47;;;;;;;3.42;3.22;;;23.30;63.60;;;;;;5000556;28;20090;-81
2023/06/25 03:58:13;;;;;;;3.30;3.10;;;23.30;63.50;;;;;;4999768;28;20073;-82
2023/06/25 04:00:39;;;;;;;3.78;3.58;;;23.30;63.50;;;;;;4999950;28;20111;-81
2023/06/25 04:03:05;;;;;;;3.15;3.03;;;23.30;63.40;;;;;;5014996;28;20053;-82
2023/06/25 04:05:30;;;;;;;3.40;3.20;;;23.30;63.60;;;;;;5001339;28;20049;-82
2023/06/25 04:07:56;;;;;;;3.45;3.25;;;23.30;64.40;;;;;;4982777;28;20050;-82
2023/06/25 04:10:22;;;;;;;3.75;3.55;;;23.30;63.70;;;;;;5003351;28;20046;-81
2023/06/25 04:12:47;;;;;;;3.25;3.10;;;23.30;63.70;;;;;;5000633;28;20053;-81
2023/06/25 04:15:13;;;;;;;3.63;3.30;;;23.30;63.80;;;;;;5020085;28;20045;-81
2023/06/25 04:17:39;;;;;;;3.50;3.30;;;23.20;63.60;;;;;;5000658;28;20052;-80
2023/06/25 04:20:06;;;;;;;3.20;3.00;;;23.30;63.70;;;;;;5001439;28;20050;-81
2023/06/25 04:22:32;;;;;;;3.58;3.28;;;23.30;63.60;;;;;;5017142;28;20046;-81
2023/06/25 04:24:57;;;;;;;3.05;2.95;;;23.30;63.70;;;;;;4998857;28;20084;-81
2023/06/25 04:27:23;;;;;;;3.50;3.28;;;23.30;63.60;;;;;;5015704;28;20069;-81
2023/06/25 04:29:48;;;;;;;3.38;3.13;;;23.30;63.60;;;;;;5001465;28;20045;-80
2023/06/25 04:32:14;;;;;;;3.17;3.00;;;23.20;63.50;;;;;;5000074;28;20571;-81
2023/06/25 04:34:39;;;;;;;3.60;3.35;;;23.20;64.30;;;;;;4998140;28;20049;-81
2023/06/25 04:37:05;;;;;;;3.67;3.47;;;23.20;63.50;;;;;;5003692;28;20050;-81
2023/06/25 04:39:31;;;;;;;3.58;3.38;;;23.20;63.60;;;;;;5017020;28;20050;-81
2023/06/25 04:41:56;;;;;;;3.65;3.45;;;23.20;63.60;;;;;;5018207;28;20116;-81
2023/06/25 04:44:22;;;;;;;5.88;3.55;;;23.20;63.60;;;;;;5002021;28;20035;-81
2023/06/25 04:46:47;;;;;;;3.03;2.83;;;23.20;63.60;;;;;;4999502;28;20045;-81
2023/06/25 04:49:13;;;;;;;2.88;2.78;;;23.20;63.50;;;;;;5001849;28;20084;-81
2023/06/25 04:51:39;;;;;;;3.30;3.10;;;23.20;63.50;;;;;;5004085;28;20053;-82
2023/06/25 04:54:05;;;;;;;3.40;3.30;;;23.20;63.50;;;;;;5020816;28;20045;-81
2023/06/25 04:56:30;;;;;;;3.20;3.10;;;23.20;63.50;;;;;;5016589;28;20050;-81
2023/06/25 04:58:56;;;;;;;3.22;3.03;;;23.20;63.40;;;;;;4999243;28;20058;-81
2023/06/25 05:01:23;;;;;;;3.22;3.13;;;23.20;63.40;;;;;;5003289;28;20092;-81
2023/06/25 05:03:48;;;;;;;3.03;2.83;;;23.20;63.50;;;;;;5002439;28;20041;-82
2023/06/25 05:06:14;;;;;;;3.85;3.55;;;23.20;63.50;;;;;;5004264;28;20048;-81
2023/06/25 05:08:39;;;;;;;3.50;3.30;;;23.20;63.40;;;;;;5003622;28;20081;-80
2023/06/25 05:11:05;;;;;;;4.85;4.55;;;23.10;63.90;;;;;;5002877;28;20049;-83
2023/06/25 05:13:31;;;;;;;4.45;4.25;;;22.40;65.80;;;;;;5001953;28;20152;-82
2023/06/25 05:15:57;;;;;;;4.20;4.00;;;22.00;67.80;;;;;;5002757;28;20527;-82
2023/06/25 05:18:22;;;;;;;3.85;3.63;;;21.90;68.20;;;;;;5005190;28;20057;-82
2023/06/25 05:20:48;;;;;;;3.50;3.30;;;21.70;69.30;;;;;;5003592;28;20064;-82
2023/06/25 05:23:13;;;;;;;3.92;3.72;;;21.60;70.50;;;;;;5001325;28;20030;-82
2023/06/25 05:25:39;;;;;;;4.10;3.90;;;21.60;70.00;;;;;;5002651;28;20458;-82
2023/06/25 05:28:05;;;;;;;4.60;4.30;;;21.60;70.10;;;;;;5016689;28;20053;-82
2023/06/25 05:30:31;;;;;;;4.75;4.25;;;21.60;69.90;;;;;;5004711;28;20042;-82
2023/06/25 05:32:57;;;;;;;4.40;4.10;;;21.50;69.90;;;;;;5004687;28;20096;-82
2023/06/25 05:35:23;;;;;;;3.88;3.67;;;21.60;69.70;;;;;;5003506;28;20074;-83
2023/06/25 05:37:49;;;;;;;4.40;4.10;;;21.60;69.90;;;;;;5005135;28;20527;-82
2023/06/25 05:40:14;;;;;;;3.90;3.70;;;21.60;69.70;;;;;;5006937;28;20050;-82
2023/06/25 05:42:40;;;;;;;4.38;3.85;;;21.60;69.90;;;;;;5007144;28;20076;-82
2023/06/25 05:45:07;;;;;;;4.28;3.92;;;21.50;70.10;;;;;;5006586;28;20042;-82
2023/06/25 05:47:32;;;;;;;4.25;4.05;;;21.50;70.40;;;;;;5002357;28;20052;-81
2023/06/25 05:49:58;;;;;;;4.25;4.05;;;21.60;69.80;;;;;;5002706;28;20049;-82
2023/06/25 05:52:24;;;;;;;4.40;4.00;;;21.70;69.80;;;;;;5005766;28;20472;-85
2023/06/25 05:54:49;;;;;;;4.30;4.00;;;21.80;70.00;;;;;;5005262;28;20530;-81
2023/06/25 05:57:15;;;;;;;4.07;3.72;;;21.90;69.00;;;;;;5003358;28;20060;-85
2023/06/25 05:59:40;;;;;;;3.65;3.45;;;22.00;68.50;;;;;;5002074;28;20046;-85
2023/06/25 06:02:09;;;;;;;3.75;3.55;;;22.00;68.30;;;;;;5005103;28;20046;-84
2023/06/25 06:04:35;;;;;;;4.40;4.10;;;22.10;68.20;;;;;;5007380;28;20504;-86
2023/06/25 06:07:00;;;;;;;3.80;3.60;;;22.20;67.40;;;;;;5002409;28;20069;-85
2023/06/25 06:09:26;;;;;;;3.58;3.38;;;22.20;67.40;;;;;;5008100;28;20044;-85
2023/06/25 06:11:51;;;;;;;5.20;4.90;;;22.20;67.40;;;;;;5006225;28;20141;-85
2023/06/25 06:14:17;;;;;;;4.47;4.10;;;22.20;67.30;;;;;;5003566;28;20129;-85
2023/06/25 06:16:43;;;;;;;4.45;3.92;;;22.30;67.10;;;;;;5017542;28;20050;-85
2023/06/25 06:19:08;;;;;;;3.47;3.28;;;22.20;67.20;;;;;;5020426;28;20060;-85
2023/06/25 06:21:34;;;;;;;4.20;3.90;;;22.20;67.60;;;;;;5005306;28;20521;-85
2023/06/25 06:23:59;;;;;;;4.00;3.75;;;22.20;67.00;;;;;;5005070;28;20038;-85
2023/06/25 06:26:26;;;;;;;4.53;3.40;;;22.30;66.90;;;;;;5000534;28;20393;-85
2023/06/25 06:28:52;;;;;;;3.50;3.30;;;22.30;66.90;;;;;;5002553;28;20500;-86
2023/06/25 06:31:17;;;;;;;4.40;4.00;;;22.40;66.90;;;;;;5004673;28;20053;-88
2023/06/25 06:33:43;;;;;;;3.08;2.83;;;22.30;66.70;;;;;;5002295;28;20088;-88
2023/06/25 06:36:09;;;;;;;3.40;3.20;;;22.40;66.50;;;;;;5004991;28;20420;-88
2023/06/25 06:38:34;;;;;;;2.88;2.78;;;22.50;66.60;;;;;;5003655;28;20058;-89
2023/06/25 06:41:00;;;;;;;2.50;2.40;;;22.60;66.30;;;;;;5002934;28;20038;-88
2023/06/25 06:43:25;;;;;;;2.78;2.67;;;22.70;66.00;;;;;;5007000;28;20085;-89
2023/06/25 06:45:51;;;;;;;2.72;2.63;;;22.70;66.00;;;;;;5003018;28;20042;-89
2023/06/25 06:48:16;;;;;;;3.58;3.13;;;22.70;66.10;;;;;;5006618;28;20042;-89
2023/06/25 06:50:42;;;;;;;3.30;3.10;;;22.80;66.00;;;;;;5002167;28;20096;-85
2023/06/25 06:53:07;;;;;;;2.80;2.70;;;22.80;65.80;;;;;;5002830;28;20042;-89
2023/06/25 06:55:33;;;;;;;3.22;3.03;;;22.80;65.90;;;;;;5001492;28;20126;-89
2023/06/25 06:57:59;;;;;;;2.75;2.65;;;22.80;65.70;;;;;;5002310;28;20113;-86
2023/06/25 07:00:24;;;;;;;3.17;2.97;;;22.80;65.90;;;;;;5022854;28;20605;-88
2023/06/25 07:02:50;;;;;;;2.63;2.53;;;23.00;65.90;;;;;;5003252;28;20033;-89
2023/06/25 07:05:16;;;;;;;3.38;3.22;;;23.00;65.80;;;;;;5000754;28;20551;-89
2023/06/25 07:07:42;;;;;;;3.10;2.90;;;23.10;65.60;;;;;;5005246;28;20041;-84
2023/06/25 07:10:08;;;;;;;3.97;3.70;;;23.00;65.80;;;;;;5004530;28;20169;-85
2023/06/25 07:12:33;;;;;;;3.80;3.50;;;23.00;65.80;;;;;;5003538;28;20066;-85
2023/06/25 07:14:59;;;;;;;3.28;3.17;;;23.10;65.80;;;;;;5004718;28;20042;-85
2023/06/25 07:17:25;;;;;;;3.10;2.85;;;23.10;65.70;;;;;;5001172;28;20080;-86
2023/06/25 07:19:50;;;;;;;3.30;3.15;;;23.20;65.40;;;;;;5002280;28;20113;-85
2023/06/25 07:22:16;;;;;;;2.80;2.70;;;23.20;65.30;;;;;;5003942;28;20076;-85
2023/06/25 07:24:41;;;;;;;3.58;3.28;;;23.20;65.00;;;;;;5003898;28;20061;-89
2023/06/25 07:27:07;;;;;;;2.90;2.70;;;23.30;65.10;;;;;;5008013;28;20061;-89
2023/06/25 07:29:33;;;;;;;3.88;3.50;;;23.30;65.10;;;;;;5004862;28;20050;-84
2023/06/25 07:31:58;;;;;;;3.55;3.35;;;23.30;65.30;;;;;;5003453;28;20038;-83
2023/06/25 07:34:24;;;;;;;4.15;2.97;;;23.30;64.90;;;;;;5016212;28;20034;-86
2023/06/25 07:36:50;;;;;;;3.20;3.00;;;23.40;65.10;;;;;;5000193;28;20056;-87
2023/06/25 07:39:29;;;;;;;4.20;3.78;;;23.40;65.00;;;;;;5004652;28;20096;-86
2023/06/25 07:41:55;;;;;;;3.20;3.00;;;23.40;65.10;;;;;;5001322;28;20052;-85
2023/06/25 07:44:21;;;;;;;3.00;2.90;;;23.40;65.00;;;;;;4981876;28;20034;-87
2023/06/25 07:46:47;;;;;;;4.72;2.97;;;23.50;65.20;;;;;;4995980;28;20407;-87
2023/06/25 07:49:12;;;;;;;3.50;3.30;;;23.50;65.20;;;;;;4988076;28;20042;-88
2023/06/25 07:51:38;;;;;;;2.95;2.85;;;23.50;65.20;;;;;;5003916;28;20045;-87
2023/06/25 07:54:03;;;;;;;3.00;2.80;;;23.50;65.00;;;;;;5002956;28;20053;-88
2023/06/25 07:56:29;;;;;;;3.85;3.50;;;23.50;64.90;;;;;;5003171;28;20423;-88
2023/06/25 07:58:54;;;;;;;3.13;2.92;;;23.50;64.90;;;;;;5002553;28;20065;-87
2023/06/25 08:01:20;;;;;;;3.33;3.00;;;23.50;65.00;;;;;;5000185;28;20384;-88
2023/06/25 08:03:46;;;;;;;2.95;2.85;;;23.50;64.90;;;;;;5001160;28;20038;-89
2023/06/25 08:06:11;;;;;;;3.20;3.00;;;23.60;65.90;;;;;;5005201;28;20048;-88
2023/06/25 08:08:37;;;;;;;3.22;2.92;;;23.60;65.00;;;;;;5002544;28;20065;-88
2023/06/25 08:11:02;;;;;;;23.13;3.70;;;23.60;64.80;;;;;;5001986;28;20065;-87
2023/06/25 08:13:28;;;;;;;2.65;2.55;;;23.60;64.80;;;;;;5000652;28;20038;-88
2023/06/25 08:15:54;;;;;;;2.75;2.60;;;23.60;64.80;;;;;;5002603;28;20140;-87
2023/06/25 08:18:20;;;;;;;2.85;2.75;;;23.60;64.90;;;;;;5005585;28;20049;-88
2023/06/25 08:20:46;;;;;;;2.53;2.42;;;23.60;64.80;;;;;;5001516;28;20050;-88
2023/06/25 08:23:11;;;;;;;3.17;2.97;;;23.60;64.70;;;;;;5001740;28;20326;-88
2023/06/25 08:25:37;;;;;;;3.10;2.92;;;23.60;64.60;;;;;;5002646;28;20046;-88
2023/06/25 08:28:03;;;;;;;2.88;2.78;;;23.70;64.70;;;;;;5001118;28;20489;-87
2023/06/25 08:30:29;;;;;;;3.53;3.33;;;23.70;64.60;;;;;;5004470;28;20092;-87
2023/06/25 08:32:54;;;;;;;2.78;2.58;;;23.70;64.70;;;;;;5000984;28;20120;-86
2023/06/25 08:35:20;;;;;;;2.90;2.70;;;23.70;65.40;;;;;;5019734;28;20132;-88
2023/06/25 08:37:45;;;;;;;2.92;2.83;;;23.70;64.60;;;;;;5000174;28;20046;-87
2023/06/25 08:40:11;;;;;;;3.25;3.05;;;23.70;64.60;;;;;;4999388;28;20031;-88
2023/06/25 08:42:39;;;;;;;4.10;3.30;;;23.70;64.60;;;;;;4997543;28;20041;-87
2023/06/25 08:45:04;;;;;;;3.30;3.10;;;23.70;64.60;;;;;;5002346;28;20034;-88
2023/06/25 08:47:33;;;;;;;2.67;2.58;;;23.80;64.50;;;;;;5017391;28;20057;-87
2023/06/25 08:49:59;;;;;;;2.90;2.70;;;23.80;64.40;;;;;;5012603;28;20037;-87
2023/06/25 08:52:24;;;;;;;2.80;2.70;;;23.80;64.30;;;;;;4999140;28;20072;-87
2023/06/25 08:54:50;;;;;;;3.08;2.97;;;23.80;64.30;;;;;;5001709;28;20193;-84
2023/06/25 08:57:16;;;;;;;2.63;2.50;;;23.80;64.30;;;;;;5004349;28;20068;-87
2023/06/25 08:59:42;;;;;;;3.00;2.80;;;23.90;64.20;;;;;;5001781;28;20030;-87
2023/06/25 09:02:08;;;;;;;3.17;2.97;;;23.90;64.20;;;;;;5002767;28;20045;-86
2023/06/25 09:04:34;;;;;;;3.00;2.80;;;23.90;64.20;;;;;;5007117;28;20416;-87
2023/06/25 09:07:11;;;;;;;2.80;2.70;;;23.90;64.10;;;;;;5004960;28;20053;-87
2023/06/25 09:09:36;;;;;;;2.70;2.60;;;23.90;63.90;;;;;;5020574;28;20046;-87
2023/06/25 09:12:02;;;;;;;2.70;2.60;;;23.90;63.80;;;;;;5007383;28;20526;-86
2023/06/25 09:14:30;;;;;;;2.72;2.63;;;24.00;63.60;;;;;;5003640;28;20046;-87
2023/06/25 09:16:56;;;;;;;2.42;2.25;;;24.00;63.60;;;;;;5002088;28;20038;-86
2023/06/25 09:19:22;;;;;;;2.60;2.50;;;24.00;63.50;;;;;;5005713;28;20034;-87
2023/06/25 09:21:48;;;;;;;3.08;2.97;;;24.00;63.40;;;;;;5005264;28;20133;-87
2023/06/25 09:24:15;;;;;;;2.95;2.83;;;24.00;63.50;;;;;;5005622;28;20404;-87
2023/06/25 09:26:48;;;;;;;2.88;2.78;;;24.00;63.40;;;;;;5007363;28;20554;-87
2023/06/25 09:29:13;;;;;;;2.95;2.80;;;24.00;63.30;;;;;;5005027;28;20053;-87
2023/06/25 09:31:46;;;;;;;2.88;2.78;;;24.00;63.20;;;;;;5005901;28;20042;-87
2023/06/25 09:34:16;;;;;;;2.60;2.50;;;24.10;63.10;;;;;;5018590;28;20060;-87
2023/06/25 09:36:41;;;;;;;3.10;2.90;;;24.10;63.10;;;;;;5019669;28;20049;-87
2023/06/25 09:39:08;;;;;;;2.60;2.50;;;24.10;62.90;;;;;;5007480;28;20056;-87
2023/06/25 09:41:35;;;;;;;3.20;2.90;;;24.10;62.80;;;;;;5006216;28;20508;-87
2023/06/25 09:44:03;;;;;;;3.00;2.90;;;24.10;62.80;;;;;;5006842;28;20508;-87
2023/06/25 09:46:28;;;;;;;2.72;2.63;;;24.10;62.80;;;;;;5002857;28;20049;-86
2023/06/25 09:48:55;;;;;;;2.92;2.83;;;24.10;62.70;;;;;;5005294;28;20420;-86
2023/06/25 09:51:21;;;;;;;2.47;2.38;;;24.10;62.70;;;;;;5022621;28;20109;-87
2023/06/25 09:53:47;;;;;;;3.05;2.88;;;24.20;62.70;;;;;;5004962;28;20376;-87
2023/06/25 09:56:14;;;;;;;4.20;2.47;;;24.20;62.70;;;;;;5020362;28;20116;-87
2023/06/25 09:58:39;;;;;;;2.50;2.40;;;24.10;62.60;;;;;;5004176;28;20515;-87
2023/06/25 10:01:05;;;;;;;2.20;2.10;;;24.20;62.70;;;;;;5003511;28;20057;-87
2023/06/25 10:03:30;;;;;;;2.83;2.63;;;24.30;62.60;;;;;;5022038;28;20523;-87
2023/06/25 10:05:56;;;;;;;3.10;2.90;;;24.30;62.50;;;;;;5019817;28;20045;-87
2023/06/25 10:08:21;;;;;;;2.40;2.30;;;24.30;62.50;;;;;;5004619;28;20046;-87
2023/06/25 10:11:00;;;;;;;3.00;2.80;;;24.30;62.50;;;;;;5005669;28;20518;-87
2023/06/25 10:13:25;;;;;;;2.70;2.60;;;24.30;62.50;;;;;;4984206;28;20033;-87
2023/06/25 10:16:02;;;;;;;2.53;2.42;;;24.30;62.30;;;;;;5004882;28;20049;-87
2023/06/25 10:18:28;;;;;;;2.40;2.30;;;24.30;62.20;;;;;;5019555;28;20115;-87
2023/06/25 10:20:57;;;;;;;2.70;2.60;;;24.30;62.20;;;;;;5004507;28;20487;-87
2023/06/25 10:23:23;;;;;;;3.03;2.92;;;24.30;62.20;;;;;;5002618;28;20041;-87
2023/06/25 10:25:53;;;;;;;2.65;2.55;;;24.30;62.10;;;;;;5004847;28;20034;-87
2023/06/25 10:28:19;;;;;;;2.30;2.20;;;24.40;62.00;;;;;;5002774;28;20046;-87
2023/06/25 10:30:49;;;;;;;2.35;2.25;;;24.40;62.80;;;;;;5004155;28;20129;-87
2023/06/25 10:33:17;;;;;;;2.70;2.60;;;24.40;62.00;;;;;;4998693;28;20269;-87
2023/06/25 10:35:48;;;;;;;2.33;2.22;;;24.40;61.90;;;;;;5004385;28;20049;-87
2023/06/25 10:38:13;;;;;;;2.70;2.60;;;24.40;62.00;;;;;;5003356;28;20042;-87
2023/06/25 10:40:39;;;;;;;2.88;2.78;;;24.40;62.00;;;;;;5004221;28;20121;-87
2023/06/25 10:43:05;;;;;;;2.60;2.50;;;24.40;61.90;;;;;;5002494;28;20612;-86
2023/06/25 10:45:31;;;;;;;2.50;2.40;;;24.40;61.90;;;;;;5006568;28;20054;-87
2023/06/25 10:48:04;;;;;;;2.85;2.67;;;24.40;61.80;;;;;;4989771;28;20045;-84
2023/06/25 10:50:31;;;;;;;2.53;2.42;;;24.40;61.70;;;;;;5000265;28;20045;-87
2023/06/25 10:52:57;;;;;;;2.60;2.50;;;24.40;61.60;;;;;;5002464;28;20080;-80
2023/06/25 10:55:23;;;;;;;2.60;2.50;;;24.50;61.70;;;;;;5002959;28;20116;-87
2023/06/25 10:57:49;;;;;;;2.50;2.40;;;24.40;61.50;;;;;;5004215;28;20539;-88
2023/06/25 11:00:15;;;;;;;2.92;2.83;;;24.50;61.60;;;;;;5003589;28;20543;-87
2023/06/25 11:02:40;;;;;;;2.70;2.60;;;24.50;61.50;;;;;;5002606;28;20507;-87
2023/06/25 11:05:06;;;;;;;3.10;2.95;;;24.50;61.30;;;;;;5002590;28;20412;-87
2023/06/25 11:07:32;;;;;;;2.65;2.55;;;24.50;61.30;;;;;;4997793;28;20034;-86
2023/06/25 11:09:58;;;;;;;2.78;2.67;;;24.50;61.30;;;;;;5005013;28;20044;-86
2023/06/25 11:12:24;;;;;;;2.30;2.10;;;24.50;61.30;;;;;;5003876;28;20046;-87
2023/06/25 11:14:50;;;;;;;2.85;2.75;;;24.50;61.30;;;;;;4985601;28;20054;-87
2023/06/25 11:17:16;;;;;;;2.75;2.65;;;24.50;61.50;;;;;;5003095;28;20416;-87
2023/06/25 11:19:42;;;;;;;3.15;3.05;;;24.50;61.40;;;;;;5002576;28;20061;-87
2023/06/25 11:22:07;;;;;;;2.83;2.70;;;24.50;61.40;;;;;;5003981;28;20511;-86
2023/06/25 11:24:36;;;;;;;2.60;2.50;;;24.60;61.40;;;;;;5006874;28;20415;-76
2023/06/25 11:27:02;;;;;;;2.42;2.33;;;24.60;61.50;;;;;;5005686;28;20125;-76
2023/06/25 11:29:41;;;;;;;2.85;2.75;;;24.50;61.50;;;;;;5002428;28;20030;-76
2023/06/25 11:32:11;;;;;;;2.80;2.70;;;24.60;61.60;;;;;;5003055;28;20537;-76
2023/06/25 11:34:39;;;;;;;2.95;2.85;;;24.60;61.60;;;;;;5001163;28;20070;-76
2023/06/25 11:37:11;;;;;;;2.60;2.50;;;24.60;61.60;;;;;;5001415;28;20045;-76
2023/06/25 11:39:52;;;;;;;2.83;2.72;;;24.60;61.60;;;;;;5004833;28;20050;-75
2023/06/25 11:42:22;;;;;;;3.05;2.95;;;24.60;61.40;;;;;;5003713;28;20042;-76
2023/06/25 11:44:58;;;;;;;2.83;2.63;;;24.60;61.40;;;;;;5017110;28;20038;-76
2023/06/25 11:47:23;;;;;;;3.60;2.88;;;24.60;61.40;;;;;;5001967;28;20103;-76
2023/06/25 11:49:56;;;;;;;2.88;2.78;;;24.60;61.40;;;;;;5003400;28;20045;-76
2023/06/25 11:52:22;;;;;;;2.65;2.55;;;24.60;61.60;;;;;;4996572;28;20056;-76
2023/06/25 11:54:47;;;;;;;2.83;2.72;;;24.60;61.60;;;;;;5005327;28;20045;-76
2023/06/25 11:57:13;;;;;;;2.92;2.83;;;24.60;61.60;;;;;;5005549;28;20125;-76
2023/06/25 11:59:38;;;;;;;3.28;3.08;;;24.60;61.60;;;;;;5003287;28;20042;-76
2023/06/25 12:02:04;;;;;;;2.97;2.88;;;24.60;61.50;;;;;;5001924;28;20129;-76
2023/06/25 12:04:30;;;;;;;3.50;3.30;;;24.60;61.50;;;;;;5001801;28;20512;-76
2023/06/25 12:06:56;;;;;;;3.28;3.08;;;24.60;61.00;;;;;;5003086;28;20059;-76
2023/06/25 12:09:21;;;;;;;3.08;2.97;;;24.60;60.90;;;;;;5003857;28;20042;-76
2023/06/25 12:11:47;;;;;;;3.70;3.50;;;24.70;61.00;;;;;;5002014;28;20525;-76
2023/06/25 12:14:12;;;;;;;3.20;3.00;;;24.60;61.20;;;;;;5003378;28;20044;-76
2023/06/25 12:16:38;;;;;;;3.60;3.40;;;24.70;61.10;;;;;;5001018;28;20100;-76
2023/06/25 12:19:06;;;;;;;3.25;3.15;;;24.60;61.10;;;;;;4999954;28;20419;-76
2023/06/25 12:21:32;;;;;;;2.90;2.80;;;24.60;61.20;;;;;;5002301;28;20061;-76
2023/06/25 12:23:57;;;;;;;3.00;2.90;;;24.70;60.90;;;;;;5002413;28;20038;-76
2023/06/25 12:26:23;;;;;;;2.97;2.88;;;24.70;60.80;;;;;;4983800;28;20054;-76
2023/06/25 12:28:49;;;;;;;3.20;3.00;;;24.70;60.80;;;;;;4982997;28;20550;-76
2023/06/25 12:31:15;;;;;;;3.20;3.00;;;24.70;60.80;;;;;;5013679;28;20073;-76
2023/06/25 12:33:41;;;;;;;3.65;3.45;;;24.70;60.90;;;;;;4987501;28;20538;-76
2023/06/25 12:36:06;;;;;;;3.30;3.10;;;24.70;60.70;;;;;;5003748;28;20058;-76
2023/06/25 12:38:32;;;;;;;3.30;3.00;;;24.70;61.70;;;;;;5003019;28;20079;-76
2023/06/25 12:40:57;;;;;;;3.33;3.15;;;24.70;60.80;;;;;;5001763;28;20037;-76
2023/06/25 12:43:23;;;;;;;3.30;3.10;;;24.70;60.80;;;;;;5001685;28;20182;-76